Time;durP1;ratioP1;P1;durP2;ratioP2;P2;SDS_P1;SDS_P2;PMS_P1;PMS_P2;Temp;Humidity;BMP_temperature;BMP_pressure;BME280_temperature;BME280_humidity;BME280_pressure;Samples;Min_cycle;Max_cycle;Signal;HPM_P1;HPM_P2
2023/01/17 00:02:11;;;;;;;0.70;0.70;;;;;;;4.55;88.77;97188.94;5113967;28;20075;-64
2023/01/17 00:10:06;;;;;;;1.02;0.93;;;;;;;4.53;88.59;97184.75;5114888;27;20366;-66
2023/01/17 00:12:35;;;;;;;0.40;0.40;;;;;;;4.56;88.74;97195.63;5114948;28;20542;-66
2023/01/17 00:15:06;;;;;;;0.50;0.50;;;;;;;4.57;88.51;97206.56;5114870;28;20464;-66
2023/01/17 00:17:34;;;;;;;0.30;0.30;;;;;;;4.59;88.21;97204.84;5115103;28;20047;-66
2023/01/17 01:35:50;;;;;;;0.95;0.95;;;;;;;4.84;88.08;97149.69;5113721;28;20126;-67
2023/01/17 01:38:22;;;;;;;0.82;0.82;;;;;;;4.84;88.31;97155.56;5113811;28;20051;-67
2023/01/17 01:40:53;;;;;;;0.45;0.45;;;;;;;4.83;88.51;97156.41;5114133;28;20550;-67
2023/01/17 01:43:41;;;;;;;0.95;0.95;;;;;;;4.85;88.32;97172.38;5114053;28;20078;-67
2023/01/17 01:46:13;;;;;;;0.60;0.60;;;;;;;4.86;88.50;97174.06;5114052;28;20039;-66
2023/01/17 01:48:47;;;;;;;0.90;0.90;;;;;;;4.88;88.36;97177.38;5113700;28;20040;-66
2023/01/17 01:51:21;;;;;;;1.20;1.10;;;;;;;4.89;88.25;97174.00;5115938;28;20044;-67
2023/01/17 01:53:58;;;;;;;1.35;1.25;;;;;;;4.90;88.35;97173.13;5117618;28;20092;-67
2023/01/17 01:56:29;;;;;;;1.45;1.35;;;;;;;4.94;88.33;97172.22;5117520;28;20135;-67
2023/01/17 01:59:02;;;;;;;0.50;0.50;;;;;;;4.96;88.35;97177.25;5117607;28;20070;-67
2023/01/17 02:01:36;;;;;;;0.88;0.88;;;;;;;4.95;88.44;97170.50;5117817;28;20044;-67
2023/01/17 02:04:08;;;;;;;0.93;0.93;;;;;;;4.93;88.34;97175.59;5117322;28;20089;-67
2023/01/17 02:06:41;;;;;;;0.40;0.40;;;;;;;4.93;88.38;97174.75;5117420;28;20481;-67
2023/01/17 02:09:15;;;;;;;0.70;0.70;;;;;;;4.93;88.22;97175.59;5117086;28;20493;-67
2023/01/17 02:11:46;;;;;;;2.40;1.45;;;;;;;4.91;88.37;97179.00;5117324;28;20109;-67
2023/01/17 02:14:15;;;;;;;0.30;0.30;;;;;;;4.90;89.00;97179.88;5117182;28;20112;-66
2023/01/17 02:17:03;;;;;;;0.50;0.50;;;;;;;4.91;88.81;97182.38;5117140;28;20068;-67
2023/01/17 02:20:00;;;;;;;0.60;0.60;;;;;;;4.92;88.77;97178.97;5117474;28;20044;-67
2023/01/17 02:22:51;;;;;;;1.02;1.02;;;;;;;4.94;88.96;97172.22;5117405;28;20047;-67
2023/01/17 02:25:48;;;;;;;0.43;0.43;;;;;;;4.95;89.04;97178.09;5117248;28;20463;-67
2023/01/17 02:28:34;;;;;;;1.40;1.25;;;;;;;4.93;89.15;97160.44;5117331;28;20442;-67
2023/01/17 02:31:12;;;;;;;0.80;0.80;;;;;;;4.93;89.16;97164.66;5116953;28;20054;-67
2023/01/17 02:33:50;;;;;;;1.63;1.30;;;;;;;4.92;89.06;97163.81;5117348;28;20047;-67
2023/01/17 02:36:24;;;;;;;1.23;1.13;;;;;;;4.93;89.28;97155.38;5116734;28;20498;-67
2023/01/17 02:38:58;;;;;;;1.63;1.30;;;;;;;4.94;89.38;97157.06;5116801;28;20050;-67
2023/01/17 02:41:33;;;;;;;0.30;0.30;;;;;;;4.95;89.49;97152.81;5116811;28;20125;-67
2023/01/17 02:44:02;;;;;;;3.72;1.10;;;;;;;4.94;89.49;97149.47;5116703;28;20036;-67
2023/01/17 02:46:32;;;;;;;0.55;0.55;;;;;;;4.94;89.94;97141.91;5116644;28;20075;-67
2023/01/17 02:49:01;;;;;;;11.02;0.80;;;;;;;4.95;89.72;97142.72;5116634;28;20109;-67
2023/01/17 02:51:59;;;;;;;0.70;0.70;;;;;;;4.95;89.95;97148.59;5116533;28;20035;-67
2023/01/17 02:54:50;;;;;;;2.03;0.93;;;;;;;4.93;89.95;97140.22;5112945;27;20043;-67
2023/01/17 02:57:45;;;;;;;0.75;0.75;;;;;;;4.92;90.19;97148.66;5116697;28;20052;-67
2023/01/17 03:00:21;;;;;;;0.80;0.80;;;;;;;4.91;90.39;97146.16;5116415;28;20039;-67
2023/01/17 03:03:02;;;;;;;0.45;0.45;;;;;;;4.90;90.59;97137.75;5115988;28;20081;-68
2023/01/17 03:05:36;;;;;;;1.08;1.05;;;;;;;4.90;90.41;97135.22;5116577;28;20067;-68
2023/01/17 03:08:06;;;;;;;1.15;1.13;;;;;;;4.92;90.35;97147.84;5115905;28;20056;-69
2023/01/17 03:10:36;;;;;;;1.67;1.58;;;;;;;4.89;90.17;97147.91;5116083;28;20130;-68
2023/01/17 03:13:05;;;;;;;0.75;0.75;;;;;;;4.88;90.81;97147.06;5116182;28;20044;-68
2023/01/17 03:15:34;;;;;;;0.83;0.83;;;;;;;4.88;91.02;97153.81;5116335;28;20427;-68
2023/01/17 03:18:11;;;;;;;4.18;1.45;;;;;;;4.85;90.76;97157.22;5116340;28;20109;-68
2023/01/17 03:20:40;;;;;;;0.50;0.50;;;;;;;4.85;90.97;97154.69;5116325;28;20039;-68
2023/01/17 03:23:09;;;;;;;0.60;0.60;;;;;;;4.83;91.18;97153.88;5115930;28;20040;-68
2023/01/17 03:25:37;;;;;;;1.47;1.37;;;;;;;4.81;91.24;97154.78;5115852;28;20069;-67
2023/01/17 03:28:06;;;;;;;1.55;1.45;;;;;;;4.78;90.98;97150.63;5116140;28;20040;-68
2023/01/17 03:30:36;;;;;;;0.77;0.65;;;;;;;4.73;91.52;97148.19;5115769;28;20043;-67
2023/01/17 03:33:06;;;;;;;0.50;0.50;;;;;;;4.70;91.16;97142.38;5115698;28;20050;-67
2023/01/17 03:35:35;;;;;;;0.38;0.38;;;;;;;4.70;91.44;97137.31;5116298;28;20701;-67
2023/01/17 03:38:04;;;;;;;0.95;0.95;;;;;;;4.68;91.33;97139.84;5115613;28;20040;-67
2023/01/17 03:40:33;;;;;;;1.55;1.30;;;;;;;4.65;91.42;97139.09;5115594;28;20511;-66
2023/01/17 03:43:01;;;;;;;0.93;0.93;;;;;;;4.62;91.44;97144.19;5115557;28;20122;-67
2023/01/17 03:45:32;;;;;;;0.45;0.45;;;;;;;4.60;91.18;97143.38;5115535;28;20276;-66
2023/01/17 03:48:01;;;;;;;0.30;0.30;;;;;;;4.56;91.52;97136.72;5115466;28;20119;-66
2023/01/17 03:50:31;;;;;;;0.35;0.35;;;;;;;4.53;91.38;97124.16;5115372;28;20046;-67
2023/01/17 03:53:00;;;;;;;0.32;0.32;;;;;;;4.49;91.39;97118.31;5115415;28;20052;-67
2023/01/17 03:55:29;;;;;;;0.70;0.70;;;;;;;4.53;91.05;97124.16;5115854;28;20458;-67
2023/01/17 03:57:59;;;;;;;0.40;0.40;;;;;;;4.56;91.01;97119.03;5115001;28;20493;-67
2023/01/17 04:00:27;;;;;;;0.97;0.93;;;;;;;4.56;90.87;97122.41;5115449;28;20062;-67
2023/01/17 04:02:56;;;;;;;0.67;0.67;;;;;;;4.55;90.75;97125.81;5115094;28;20031;-66
2023/01/17 04:05:25;;;;;;;0.40;0.40;;;;;;;4.54;90.86;97140.97;5115077;28;20130;-66
2023/01/17 04:07:56;;;;;;;0.40;0.40;;;;;;;4.51;90.79;97125.88;5115068;28;20119;-67
2023/01/17 04:10:24;;;;;;;0.30;0.30;;;;;;;4.51;90.64;97125.88;5115125;28;20059;-67
2023/01/17 04:12:53;;;;;;;0.40;0.40;;;;;;;4.50;90.95;97126.72;5114496;28;20108;-67
2023/01/17 04:15:22;;;;;;;0.50;0.50;;;;;;;4.48;90.40;97124.25;5115029;28;20038;-66
2023/01/17 04:17:51;;;;;;;0.77;0.77;;;;;;;4.47;90.39;97136.88;5114762;28;20328;-66
2023/01/17 04:20:30;;;;;;;0.40;0.40;;;;;;;4.45;90.72;97141.13;5114771;28;20067;-66
2023/01/17 04:23:01;;;;;;;0.52;0.52;;;;;;;4.45;90.41;97141.13;5114824;28;20039;-67
2023/01/17 04:25:30;;;;;;;0.50;0.50;;;;;;;4.45;90.29;97136.09;5115003;28;20044;-66
2023/01/17 04:28:00;;;;;;;0.40;0.40;;;;;;;4.44;90.43;97139.47;5114637;28;20501;-66
2023/01/17 04:30:30;;;;;;;0.50;0.50;;;;;;;4.41;90.63;97142.06;5115189;27;20048;-66
2023/01/17 04:32:59;;;;;;;0.50;0.50;;;;;;;4.38;90.41;97134.53;5114581;28;20139;-67
2023/01/17 04:35:32;;;;;;;1.13;1.02;;;;;;;4.38;90.47;97137.03;5114818;28;20401;-67
2023/01/17 04:38:02;;;;;;;0.40;0.40;;;;;;;4.37;90.81;97125.28;5114696;28;20048;-67
2023/01/17 04:40:31;;;;;;;0.60;0.60;;;;;;;4.37;90.75;97138.72;5114527;28;20050;-67
2023/01/17 04:42:59;;;;;;;0.53;0.53;;;;;;;4.39;90.36;97141.25;5114411;27;20519;-66
2023/01/17 04:45:28;;;;;;;0.45;0.45;;;;;;;4.38;90.27;97129.47;5114326;28;20085;-66
2023/01/17 04:48:03;;;;;;;0.50;0.50;;;;;;;4.37;90.85;97142.94;5114662;28;20070;-67
2023/01/17 04:50:32;;;;;;;0.30;0.30;;;;;;;4.34;90.32;97145.53;5114311;28;20485;-67
2023/01/17 04:53:03;;;;;;;0.32;0.32;;;;;;;4.33;90.62;97146.38;5114745;28;20039;-67
2023/01/17 04:55:32;;;;;;;0.40;0.40;;;;;;;4.33;90.27;97146.38;5114584;28;20104;-67
2023/01/17 04:58:00;;;;;;;0.50;0.50;;;;;;;4.34;90.70;97150.59;5114680;28;20104;-67
2023/01/17 05:00:30;;;;;;;0.47;0.47;;;;;;;4.35;90.57;97154.75;5114535;28;20039;-67
2023/01/17 05:02:58;;;;;;;0.80;0.80;;;;;;;4.30;90.40;97161.59;5114161;28;20063;-67
2023/01/17 05:05:27;;;;;;;0.50;0.50;;;;;;;4.23;90.61;97154.97;5114416;28;20691;-68
2023/01/17 05:07:56;;;;;;;0.50;0.50;;;;;;;4.22;90.75;97161.72;5114069;28;20048;-68
2023/01/17 05:10:27;;;;;;;0.60;0.60;;;;;;;4.19;90.59;97158.41;5113818;28;20562;-68
2023/01/17 05:12:57;;;;;;;0.40;0.40;;;;;;;4.20;90.45;97165.13;5114123;28;20062;-67
2023/01/17 05:15:27;;;;;;;0.50;0.50;;;;;;;4.21;90.73;97165.09;5113976;28;20043;-67
2023/01/17 05:17:56;;;;;;;7.13;1.73;;;;;;;4.20;90.79;97165.13;5114244;28;20051;-69
2023/01/17 05:20:26;;;;;;;0.47;0.47;;;;;;;4.17;90.20;97165.19;5113902;28;20047;-67
2023/01/17 05:22:56;;;;;;;0.77;0.75;;;;;;;4.17;90.38;97171.06;5114267;28;20044;-68
2023/01/17 05:25:31;;;;;;;0.57;0.57;;;;;;;4.18;90.40;97166.81;5116594;28;20521;-66
2023/01/17 05:28:00;;;;;;;0.40;0.40;;;;;;;4.17;90.88;97177.78;5118199;28;20052;-68
2023/01/17 05:30:30;;;;;;;0.40;0.40;;;;;;;4.11;90.30;97166.09;5117997;27;20085;-68
2023/01/17 05:33:00;;;;;;;0.50;0.50;;;;;;;4.16;90.79;97178.63;5118120;28;20127;-68
2023/01/17 05:35:31;;;;;;;0.40;0.40;;;;;;;4.15;90.91;97184.56;5118018;28;20067;-67
2023/01/17 05:38:00;;;;;;;0.50;0.50;;;;;;;4.13;90.26;97184.56;5117879;28;20040;-69
2023/01/17 05:40:33;;;;;;;0.60;0.60;;;;;;;4.05;90.61;97187.19;5118171;28;20096;-67
2023/01/17 05:43:03;;;;;;;1.73;1.63;;;;;;;3.98;90.86;97190.69;5118240;28;20074;-67
2023/01/17 05:45:33;;;;;;;0.43;0.43;;;;;;;3.95;90.97;97195.78;5118461;28;20052;-68
2023/01/17 05:48:03;;;;;;;0.70;0.70;;;;;;;3.94;90.93;97203.38;5117781;28;20056;-67
2023/01/17 05:50:34;;;;;;;0.50;0.50;;;;;;;3.88;91.04;97200.94;5117707;28;20054;-67
2023/01/17 05:53:06;;;;;;;0.50;0.50;;;;;;;3.81;90.29;97192.66;5117650;28;20079;-67
2023/01/17 05:55:37;;;;;;;0.85;0.85;;;;;;;3.77;91.06;97196.03;5117687;28;20058;-67
2023/01/17 05:58:07;;;;;;;2.28;1.35;;;;;;;3.78;90.63;97197.72;5117789;28;20397;-69
2023/01/17 06:00:36;;;;;;;0.70;0.70;;;;;;;3.77;91.44;97200.25;5117561;28;20043;-68
2023/01/17 06:03:05;;;;;;;0.60;0.60;;;;;;;3.77;90.92;97211.16;5117720;28;20081;-67
2023/01/17 06:05:34;;;;;;;0.40;0.40;;;;;;;3.75;91.24;97204.47;5117478;27;20512;-68
2023/01/17 06:08:03;;;;;;;0.50;0.50;;;;;;;3.70;90.93;97209.59;5117613;28;20047;-67
2023/01/17 06:10:32;;;;;;;0.57;0.57;;;;;;;3.69;90.68;97213.00;5117431;28;20101;-67
2023/01/17 06:13:05;;;;;;;0.70;0.70;;;;;;;3.70;91.33;97209.59;5117220;28;20118;-67
2023/01/17 06:15:35;;;;;;;0.40;0.40;;;;;;;3.69;91.05;97223.06;5117137;28;20362;-67
2023/01/17 06:18:06;;;;;;;1.58;1.48;;;;;;;3.69;91.54;97228.13;5117172;27;20056;-67
2023/01/17 06:20:35;;;;;;;0.40;0.40;;;;;;;3.68;91.48;97236.53;5117162;27;20112;-68
2023/01/17 06:23:06;;;;;;;0.40;0.40;;;;;;;3.66;91.27;97225.63;5117436;28;20116;-67
2023/01/17 06:25:38;;;;;;;0.45;0.45;;;;;;;3.64;91.58;97229.03;5116989;28;20100;-67
2023/01/17 06:28:08;;;;;;;0.43;0.43;;;;;;;3.63;91.11;97233.22;5117087;28;20051;-67
2023/01/17 06:30:37;;;;;;;1.05;1.05;;;;;;;3.62;91.31;97226.53;5116946;27;20051;-66
2023/01/17 06:33:06;;;;;;;0.75;0.75;;;;;;;3.61;91.59;97224.00;5116832;28;20051;-67
2023/01/17 06:35:36;;;;;;;0.57;0.57;;;;;;;3.57;90.78;97223.22;5117014;28;20130;-66
2023/01/17 06:38:05;;;;;;;0.57;0.57;;;;;;;3.54;91.52;97217.38;5116337;28;20287;-66
2023/01/17 06:40:34;;;;;;;0.40;0.40;;;;;;;3.51;90.67;97208.16;5116518;28;20040;-66
2023/01/17 06:43:05;;;;;;;0.40;0.40;;;;;;;3.44;91.15;97204.06;5116651;28;20126;-67
2023/01/17 06:45:36;;;;;;;0.60;0.60;;;;;;;3.39;91.53;97199.09;5116796;28;20062;-67
2023/01/17 06:48:05;;;;;;;0.70;0.70;;;;;;;3.42;90.96;97205.78;5116853;28;20108;-67
2023/01/17 06:50:35;;;;;;;4.18;2.28;;;;;;;3.37;91.33;97205.00;5116386;28;20127;-66
2023/01/17 06:53:06;;;;;;;0.77;0.77;;;;;;;3.33;90.97;97205.91;5116819;27;20103;-66
2023/01/17 06:55:38;;;;;;;1.25;1.15;;;;;;;3.30;91.09;97208.44;5116431;27;20048;-67
2023/01/17 06:58:10;;;;;;;0.70;0.70;;;;;;;3.29;91.49;97200.03;5116455;28;20496;-66
2023/01/17 07:00:40;;;;;;;0.50;0.50;;;;;;;3.27;91.12;97191.66;5116332;28;20043;-67
2023/01/17 07:03:19;;;;;;;0.80;0.80;;;;;;;3.27;91.15;97194.19;5116403;28;20497;-67
2023/01/17 07:05:48;;;;;;;0.50;0.50;;;;;;;3.24;91.37;97183.31;5116660;28;20039;-67
2023/01/17 07:08:18;;;;;;;1.55;1.45;;;;;;;3.21;91.54;97174.13;5116293;28;20047;-68
2023/01/17 07:10:47;;;;;;;;;;;;;;;3.20;91.99;97171.59;5116847;28;20422;-67
2023/01/17 07:13:16;;;;;;;0.50;0.50;;;;;;;3.09;92.09;97168.41;5116622;28;20271;-67
2023/01/17 07:15:46;;;;;;;0.50;0.50;;;;;;;3.11;91.40;97169.19;5116342;28;20130;-67
2023/01/17 07:18:19;;;;;;;0.50;0.50;;;;;;;3.15;92.50;97168.31;5116530;28;20061;-67
2023/01/17 07:20:48;;;;;;;0.50;0.50;;;;;;;3.17;91.98;97180.03;5116489;28;20052;-67
2023/01/17 07:23:18;;;;;;;;;;;;;;;3.25;92.01;97200.09;5116596;28;20066;-67
2023/01/17 07:25:51;;;;;;;2.08;1.55;;;;;;;3.28;92.58;97210.16;5115916;28;19926;-67
2023/01/17 07:28:20;;;;;;;1.10;1.00;;;;;;;3.34;92.42;97210.06;5116104;28;20093;-67
2023/01/17 07:30:51;;;;;;;1.03;1.03;;;;;;;3.42;92.30;97213.34;5115771;28;20135;-67
2023/01/17 07:33:20;;;;;;;0.50;0.50;;;;;;;3.47;92.51;97231.75;5116018;28;20051;-67
2023/01/17 07:35:49;;;;;;;0.82;0.82;;;;;;;3.50;92.42;97240.97;5116138;27;20116;-67
2023/01/17 07:38:20;;;;;;;0.60;0.60;;;;;;;3.54;92.41;97248.47;5115905;28;20115;-67
2023/01/17 07:40:48;;;;;;;0.88;0.82;;;;;;;3.54;92.26;97262.75;5115541;28;20052;-67
2023/01/17 07:43:17;;;;;;;0.87;0.87;;;;;;;3.53;92.51;97269.47;5115486;27;20067;-67
2023/01/17 07:45:50;;;;;;;2.38;1.27;;;;;;;3.53;92.42;97266.97;5115457;28;20126;-67
2023/01/17 07:48:21;;;;;;;5.30;2.60;;;;;;;3.58;93.04;97271.94;5114595;28;20043;-67
2023/01/17 07:50:54;;;;;;;0.40;0.40;;;;;;;3.56;92.76;97266.94;5115894;28;20466;-67
2023/01/17 07:53:24;;;;;;;0.60;0.60;;;;;;;3.60;92.48;97273.59;5115313;28;20047;-67
2023/01/17 07:55:54;;;;;;;0.65;0.65;;;;;;;3.62;92.49;97271.91;5115898;28;20042;-67
2023/01/17 07:58:22;;;;;;;0.75;0.75;;;;;;;3.67;92.85;97282.75;5115101;28;20067;-67
2023/01/17 08:00:53;;;;;;;1.73;1.30;;;;;;;3.62;93.19;97276.13;5115705;28;20130;-67
2023/01/17 08:03:22;;;;;;;1.00;0.95;;;;;;;3.69;92.96;97292.84;5115081;28;20082;-67
2023/01/17 08:05:56;;;;;;;0.90;0.90;;;;;;;3.71;92.95;97294.50;5112705;28;20521;-68
2023/01/17 08:08:25;;;;;;;1.38;1.25;;;;;;;3.72;93.15;97293.63;5104056;28;20036;-69
2023/01/17 08:10:53;;;;;;;0.50;0.50;;;;;;;3.75;93.20;97303.69;5098729;28;20122;-69
2023/01/17 08:13:22;;;;;;;0.50;0.50;;;;;;;3.79;92.63;97314.59;5114812;28;20097;-67
2023/01/17 08:15:53;;;;;;;0.60;0.60;;;;;;;3.83;93.23;97316.19;5114841;28;20035;-67
2023/01/17 08:18:22;;;;;;;0.82;0.82;;;;;;;3.85;93.20;97324.56;5114927;28;20278;-67
2023/01/17 08:20:51;;;;;;;0.30;0.30;;;;;;;3.86;93.11;97327.06;5114980;28;20052;-67
2023/01/17 08:23:20;;;;;;;0.95;0.95;;;;;;;3.89;92.77;97332.09;5114719;28;20229;-67
2023/01/17 08:25:48;;;;;;;0.70;0.70;;;;;;;3.92;93.11;97332.06;5114850;28;20089;-67
2023/01/17 08:28:18;;;;;;;0.43;0.43;;;;;;;3.96;92.96;97338.72;5114649;28;20036;-67
2023/01/17 08:30:47;;;;;;;;;;;;;;;4.04;93.11;97343.69;5115086;28;20043;-68
2023/01/17 08:33:17;;;;;;;0.70;0.70;;;;;;;4.14;93.17;97345.22;5114504;28;19920;-67
2023/01/17 08:35:52;;;;;;;0.50;0.50;;;;;;;4.23;92.75;97340.06;5114570;28;20507;-67
2023/01/17 08:38:22;;;;;;;0.50;0.50;;;;;;;4.36;92.44;97340.72;5114428;28;20499;-67
2023/01/17 08:40:51;;;;;;;0.30;0.30;;;;;;;4.49;92.82;97337.16;5114300;28;20092;-67
2023/01/17 08:43:20;;;;;;;0.50;0.50;;;;;;;4.57;92.33;97335.38;5114702;28;20039;-67
2023/01/17 08:45:50;;;;;;;2.75;0.93;;;;;;;4.57;92.62;97331.16;5114195;28;20043;-66
2023/01/17 08:48:20;;;;;;;0.40;0.40;;;;;;;4.62;92.14;97331.06;5096695;28;20396;-66
2023/01/17 08:50:49;;;;;;;0.30;0.30;;;;;;;4.50;92.20;97328.75;5099607;28;20053;-67
2023/01/17 08:53:20;;;;;;;0.50;0.50;;;;;;;4.53;91.94;97342.16;5107055;28;20123;-67
2023/01/17 08:55:50;;;;;;;0.50;0.50;;;;;;;4.39;91.81;97353.31;5094127;28;20040;-67
2023/01/17 08:58:19;;;;;;;0.75;0.75;;;;;;;4.37;91.77;97365.09;5093718;28;20040;-67
2023/01/17 09:00:48;;;;;;;0.70;0.70;;;;;;;4.36;91.49;97374.38;5095637;28;20036;-67
2023/01/17 09:03:17;;;;;;;0.40;0.40;;;;;;;4.30;91.35;97373.63;5102617;28;20036;-66
2023/01/17 09:05:47;;;;;;;0.50;0.50;;;;;;;4.28;91.21;97377.84;5093964;28;20040;-67
2023/01/17 09:08:16;;;;;;;0.35;0.35;;;;;;;4.30;91.17;97387.06;5093375;28;20474;-69
2023/01/17 09:10:46;;;;;;;1.98;0.90;;;;;;;4.29;91.34;97392.16;5097385;28;20044;-67
2023/01/17 09:13:15;;;;;;;1.00;1.00;;;;;;;4.23;91.39;97393.06;5100660;28;20042;-67
2023/01/17 09:15:43;;;;;;;0.90;0.90;;;;;;;4.20;90.90;97402.38;5104579;28;20040;-67
2023/01/17 09:18:12;;;;;;;0.50;0.50;;;;;;;4.16;91.18;97401.56;5106615;28;20412;-66
2023/01/17 09:20:41;;;;;;;0.32;0.32;;;;;;;4.10;91.29;97395.75;5094646;28;20562;-67
2023/01/17 09:23:11;;;;;;;0.95;0.95;;;;;;;4.08;91.57;97391.56;5093520;28;20044;-67
2023/01/17 09:25:43;;;;;;;0.60;0.60;;;;;;;4.11;91.11;97382.28;5093473;28;20071;-66
2023/01/17 09:28:12;;;;;;;0.60;0.60;;;;;;;4.09;91.53;97394.91;5093290;28;20039;-67
2023/01/17 09:30:41;;;;;;;0.70;0.70;;;;;;;4.12;91.17;97383.97;5093388;28;20068;-67
2023/01/17 09:33:09;;;;;;;1.43;1.33;;;;;;;4.12;91.33;97394.06;5093257;28;20501;-67
2023/01/17 09:35:38;;;;;;;0.35;0.35;;;;;;;4.14;91.31;97388.13;5093361;28;20342;-67
2023/01/17 09:38:07;;;;;;;1.10;1.10;;;;;;;4.16;91.52;97405.78;5093610;28;20040;-67
2023/01/17 09:40:42;;;;;;;2.38;1.52;;;;;;;4.17;91.63;97407.44;5093133;28;20097;-66
2023/01/17 09:43:20;;;;;;;0.40;0.40;;;;;;;4.21;91.70;97404.03;5093632;28;20052;-67
2023/01/17 09:45:49;;;;;;;0.63;0.63;;;;;;;4.27;91.44;97403.97;5093527;28;20131;-66
2023/01/17 09:48:25;;;;;;;2.05;1.73;;;;;;;4.32;91.55;97407.28;5093208;28;20040;-67
2023/01/17 09:51:00;;;;;;;0.50;0.50;;;;;;;4.32;91.82;97414.84;5093145;28;20071;-67
2023/01/17 09:53:35;;;;;;;0.55;0.55;;;;;;;4.28;91.33;97416.56;5099186;28;20036;-67
2023/01/17 09:56:10;;;;;;;0.50;0.50;;;;;;;4.29;91.35;97430.03;5113932;28;20172;-67
2023/01/17 09:58:47;;;;;;;0.57;0.57;;;;;;;4.22;91.11;97430.94;5113801;28;20097;-67
2023/01/17 10:01:27;;;;;;;0.80;0.80;;;;;;;4.22;91.01;97426.75;5113542;28;20059;-67
2023/01/17 10:04:00;;;;;;;;;;;;;;;4.22;91.15;97436.00;5113952;28;20101;-67
2023/01/17 10:06:43;;;;;;;0.90;0.90;;;;;;;4.20;91.00;97432.66;5113794;28;20276;-68
2023/01/17 10:09:32;;;;;;;0.50;0.50;;;;;;;4.20;90.65;97432.66;5113699;28;20098;-67
2023/01/17 10:12:31;;;;;;;0.32;0.32;;;;;;;4.25;90.69;97441.81;5114965;28;20050;-67
2023/01/17 10:15:21;;;;;;;0.60;0.60;;;;;;;4.29;90.82;97442.66;5116857;28;20435;-66
2023/01/17 10:17:57;;;;;;;0.85;0.85;;;;;;;4.31;90.53;97435.88;5117627;28;20048;-67
2023/01/17 10:20:44;;;;;;;0.40;0.40;;;;;;;4.32;90.39;97427.47;5110668;28;20056;-69
2023/01/17 10:23:28;;;;;;;0.65;0.65;;;;;;;4.37;89.93;97440.84;5102375;28;20128;-67
2023/01/17 10:26:01;;;;;;;3.50;1.60;;;;;;;4.39;90.03;97439.16;5096908;28;20497;-67
2023/01/17 10:28:38;;;;;;;1.08;0.98;;;;;;;4.39;89.94;97439.97;5096542;28;20040;-68
2023/01/17 10:31:10;;;;;;;0.50;0.50;;;;;;;4.40;90.09;97440.81;5108623;28;20088;-67
2023/01/17 10:33:45;;;;;;;4.32;1.13;;;;;;;4.42;89.70;97449.19;5096439;28;20047;-67
2023/01/17 10:36:19;;;;;;;0.70;0.70;;;;;;;4.45;89.69;97450.00;5096813;28;20070;-67
2023/01/17 10:38:50;;;;;;;0.98;0.98;;;;;;;4.39;89.25;97449.25;5096613;28;20067;-67
2023/01/17 10:41:25;;;;;;;1.63;1.50;;;;;;;4.43;89.28;97461.81;5096064;28;20048;-67
2023/01/17 10:44:05;;;;;;;0.45;0.45;;;;;;;4.33;89.57;97464.47;5095022;28;20039;-67
2023/01/17 10:46:39;;;;;;;0.50;0.50;;;;;;;4.20;89.47;97462.94;5096504;28;20445;-67
2023/01/17 10:49:16;;;;;;;0.98;0.98;;;;;;;4.12;89.08;97454.63;5095994;28;20136;-66
2023/01/17 10:52:00;;;;;;;0.52;0.52;;;;;;;4.06;88.76;97451.31;5095976;28;20055;-67
2023/01/17 10:54:50;;;;;;;0.98;0.82;;;;;;;4.07;88.98;97437.84;5108927;28;20118;-66
2023/01/17 10:57:22;;;;;;;0.65;0.65;;;;;;;4.08;89.26;97429.41;5105686;28;20044;-67
2023/01/17 10:59:57;;;;;;;0.40;0.40;;;;;;;4.13;88.99;97436.13;5116473;28;20397;-67
2023/01/17 11:02:32;;;;;;;1.05;1.05;;;;;;;4.15;88.86;97439.44;5115895;27;20040;-67
2023/01/17 11:05:12;;;;;;;0.40;0.40;;;;;;;4.16;88.76;97431.84;5095902;28;20048;-67
2023/01/17 11:07:57;;;;;;;;;;;;;;;4.20;89.19;97420.03;5096397;28;20452;-67
2023/01/17 11:10:39;;;;;;;1.45;0.82;;;;;;;4.22;89.51;97395.63;5095757;28;20029;-67
2023/01/17 11:13:22;;;;;;;0.60;0.60;;;;;;;4.24;89.29;97389.69;5101417;28;20481;-67
2023/01/17 11:15:56;;;;;;;0.75;0.75;;;;;;;4.29;89.37;97382.91;5116418;28;20077;-67
2023/01/17 11:18:28;;;;;;;1.40;1.15;;;;;;;4.34;89.32;97373.56;5116234;28;20492;-66
2023/01/17 11:21:12;;;;;;;0.70;0.70;;;;;;;4.36;89.43;97374.38;5115980;28;20036;-67
2023/01/17 11:23:43;;;;;;;0.88;0.85;;;;;;;4.37;89.48;97368.47;5115784;28;20047;-67
2023/01/17 11:26:23;;;;;;;1.25;1.20;;;;;;;4.34;89.38;97355.91;5115819;28;20053;-67
2023/01/17 11:28:51;;;;;;;;;;;;;;;4.40;89.08;97349.91;5116334;28;20123;-67
2023/01/17 11:31:26;;;;;;;2.35;1.95;;;;;;;4.45;89.37;97359.09;5116012;28;19949;-66
2023/01/17 11:34:15;;;;;;;0.55;0.55;;;;;;;4.39;89.22;97341.50;5115815;28;20096;-66
2023/01/17 11:36:44;;;;;;;0.97;0.93;;;;;;;4.38;89.03;97354.16;5115695;28;20051;-66
2023/01/17 11:39:26;;;;;;;1.17;1.05;;;;;;;4.58;88.94;97354.72;5115574;28;20329;-67
2023/01/17 11:41:55;;;;;;;0.60;0.60;;;;;;;4.91;89.26;97349.16;5115666;28;20044;-66
2023/01/17 11:44:27;;;;;;;0.70;0.70;;;;;;;5.16;88.63;97355.44;5115478;27;20096;-67
2023/01/17 11:47:15;;;;;;;0.50;0.50;;;;;;;5.47;87.98;97360.00;5114310;28;20131;-67
2023/01/17 11:49:47;;;;;;;0.87;0.83;;;;;;;5.50;87.47;97359.91;5116043;28;20071;-67
2023/01/17 11:52:23;;;;;;;1.83;1.73;;;;;;;5.55;86.73;97373.31;5115374;28;20617;-67
2023/01/17 11:54:54;;;;;;;0.98;0.98;;;;;;;5.48;86.36;97376.81;5115304;28;20056;-67
2023/01/17 11:57:26;;;;;;;0.93;0.93;;;;;;;5.39;85.59;97368.56;5115793;28;20043;-67
2023/01/17 12:00:03;;;;;;;2.45;1.45;;;;;;;5.35;85.39;97371.97;5115260;28;20044;-67
2023/01/17 12:03:03;;;;;;;3.83;2.10;;;;;;;5.34;85.23;97370.31;5115238;28;20575;-67
2023/01/17 12:05:45;;;;;;;1.73;1.63;;;;;;;5.35;84.97;97361.84;5115675;28;20050;-67
2023/01/17 12:08:25;;;;;;;1.13;1.13;;;;;;;5.34;85.17;97361.91;5115093;28;20130;-67
2023/01/17 12:11:04;;;;;;;0.98;0.93;;;;;;;5.40;84.48;97354.19;5115722;28;20044;-67
2023/01/17 12:16:33;;;;;;;0.93;0.93;;;;;;;5.82;84.19;97342.44;5114878;28;20481;-67
2023/01/17 12:19:26;;;;;;;1.85;1.40;;;;;;;6.07;83.68;97333.50;5113973;28;20078;-68
2023/01/17 12:22:07;;;;;;;0.93;0.93;;;;;;;6.34;83.39;97332.94;5114982;28;20073;-68
2023/01/17 12:24:50;;;;;;;0.90;0.85;;;;;;;6.58;82.62;97337.44;5115006;28;20157;-67
2023/01/17 12:27:29;;;;;;;0.73;0.73;;;;;;;6.75;82.56;97337.91;5115121;28;20044;-67
2023/01/17 12:30:11;;;;;;;0.40;0.40;;;;;;;6.74;81.12;97332.88;5114664;28;20047;-67
2023/01/17 12:33:08;;;;;;;0.60;0.60;;;;;;;6.55;80.18;97347.66;5114871;28;20404;-67
2023/01/17 12:35:44;;;;;;;1.58;1.48;;;;;;;6.55;80.46;97339.25;5114187;28;20035;-67
2023/01/17 12:38:18;;;;;;;1.15;1.08;;;;;;;6.67;80.58;97354.16;5114835;28;20512;-67
2023/01/17 12:41:07;;;;;;;0.75;0.75;;;;;;;6.60;79.27;97355.97;5114376;28;20048;-68
2023/01/17 12:43:40;;;;;;;1.20;0.93;;;;;;;6.49;79.28;97360.47;5104926;28;20477;-68
2023/01/17 12:46:19;;;;;;;0.50;0.50;;;;;;;6.43;79.49;97368.19;5093684;28;20040;-68
2023/01/17 12:48:52;;;;;;;1.00;1.00;;;;;;;6.37;79.50;97365.78;5094336;28;20051;-68
2023/01/17 12:51:28;;;;;;;0.85;0.85;;;;;;;6.30;79.45;97369.34;5095053;28;20385;-68
2023/01/17 12:54:03;;;;;;;1.77;1.67;;;;;;;6.22;79.48;97373.72;5094180;28;20369;-68
2023/01/17 12:56:36;;;;;;;1.08;1.00;;;;;;;6.15;79.22;97371.31;5093802;28;20089;-67
2023/01/17 12:59:15;;;;;;;0.60;0.60;;;;;;;6.08;79.36;97361.34;5094235;28;20489;-67
2023/01/17 13:01:56;;;;;;;0.33;0.33;;;;;;;6.04;78.95;97358.91;5100303;28;20036;-67
2023/01/17 13:04:29;;;;;;;0.70;0.70;;;;;;;5.99;79.01;97371.66;5093936;28;20052;-67
2023/01/17 13:07:10;;;;;;;0.68;0.68;;;;;;;5.91;79.26;97372.66;5109487;28;20036;-66
2023/01/17 13:09:46;;;;;;;1.58;1.48;;;;;;;5.84;79.04;97387.13;5112043;28;20048;-67
2023/01/17 13:12:19;;;;;;;0.50;0.50;;;;;;;5.77;79.45;97367.84;5111794;28;20036;-68
2023/01/17 13:14:48;;;;;;;0.43;0.43;;;;;;;5.73;79.49;97365.41;5113361;28;20039;-68
2023/01/17 13:17:31;;;;;;;0.57;0.57;;;;;;;5.73;79.77;97378.06;5112647;28;20112;-68
2023/01/17 13:20:07;;;;;;;1.60;1.50;;;;;;;5.68;80.04;97364.66;5110575;28;20497;-67
2023/01/17 13:22:40;;;;;;;0.40;0.40;;;;;;;5.67;80.15;97365.50;5110887;28;20052;-67
2023/01/17 13:25:24;;;;;;;1.77;1.67;;;;;;;5.64;80.38;97363.84;5113426;28;20523;-68
2023/01/17 13:28:03;;;;;;;1.25;1.15;;;;;;;5.55;80.20;97353.06;5113948;28;20040;-67
2023/01/17 13:30:55;;;;;;;1.95;1.52;;;;;;;5.55;80.06;97360.66;5113825;28;20055;-67
2023/01/17 13:33:46;;;;;;;1.10;1.02;;;;;;;5.49;80.00;97343.09;5112428;28;20073;-67
2023/01/17 13:36:28;;;;;;;0.80;0.80;;;;;;;5.52;80.18;97348.09;5113744;28;20052;-67
2023/01/17 13:39:20;;;;;;;1.20;0.93;;;;;;;5.53;80.48;97349.75;5114031;28;20044;-67